Time;durP1;ratioP1;P1;durP2;ratioP2;P2;SDS_P1;SDS_P2;PMS_P1;PMS_P2;Temp;Humidity;BMP_temperature;BMP_pressure;BME280_temperature;BME280_humidity;BME280_pressure;Samples;Min_cycle;Max_cycle;Signal;HPM_P1;HPM_P2
2023/03/28 00:01:47;;;;;;;3.07;2.77;;;;;;;2.99;100.00;93578.25;6299243;22;20195;-77
2023/03/28 00:04:16;;;;;;;2.90;2.70;;;;;;;2.94;100.00;93578.06;6297203;22;20653;-77
2023/03/28 00:06:44;;;;;;;2.53;2.33;;;;;;;2.88;100.00;93586.56;6297583;22;20179;-77
2023/03/28 00:09:11;;;;;;;2.60;2.40;;;;;;;2.73;100.00;93604.69;6297350;22;20180;-76
2023/03/28 00:11:38;;;;;;;2.77;2.53;;;;;;;2.73;100.00;93609.84;6299427;22;20168;-77
2023/03/28 00:14:07;;;;;;;3.13;2.83;;;;;;;2.68;100.00;93614.75;6298249;22;20198;-77
2023/03/28 00:16:36;;;;;;;3.47;2.80;;;;;;;2.62;100.00;93636.84;6297022;22;20296;-76
2023/03/28 00:19:06;;;;;;;2.53;2.33;;;;;;;2.67;100.00;93626.00;6297369;22;20179;-76
2023/03/28 00:21:36;;;;;;;2.93;2.57;;;;;;;2.49;100.00;93646.25;6297393;22;20192;-77
2023/03/28 00:24:09;;;;;;;3.27;2.60;;;;;;;2.41;100.00;93652.38;6300014;22;20153;-76
2023/03/28 00:26:37;;;;;;;3.30;3.00;;;;;;;2.47;100.00;93654.16;6298919;22;20188;-77
2023/03/28 00:29:05;;;;;;;3.20;2.90;;;;;;;2.49;100.00;93659.88;6298593;22;20175;-76
2023/03/28 00:31:33;;;;;;;3.90;3.30;;;;;;;2.46;99.87;93659.47;6299451;22;20168;-76
2023/03/28 00:34:00;;;;;;;4.07;3.30;;;;;;;2.43;100.00;93650.41;6299904;22;20221;-76
2023/03/28 00:36:28;;;;;;;3.70;3.30;;;;;;;2.43;100.00;93663.22;6301098;22;20171;-77
2023/03/28 00:38:56;;;;;;;3.93;3.53;;;;;;;2.29;100.00;93664.94;6298646;22;20222;-76
2023/03/28 00:41:25;;;;;;;3.83;3.43;;;;;;;2.18;100.00;93662.94;6298164;22;20961;-77
2023/03/28 00:43:54;;;;;;;3.97;3.57;;;;;;;2.15;100.00;93676.13;6298626;22;20281;-77
2023/03/28 00:46:25;;;;;;;4.27;3.80;;;;;;;2.00;100.00;93675.47;6301933;22;20164;-77
2023/03/28 00:48:54;;;;;;;5.40;4.57;;;;;;;1.87;100.00;93670.28;6300030;22;20252;-78
2023/03/28 00:51:26;;;;;;;5.93;4.97;;;;;;;1.81;100.00;93685.63;6298778;22;20179;-76
2023/03/28 00:53:56;;;;;;;7.00;4.70;;;;;;;1.78;100.00;93694.47;6299109;22;20220;-77
2023/03/28 00:56:28;;;;;;;5.87;5.13;;;;;;;1.73;100.00;93707.81;6299530;22;20160;-76
2023/03/28 00:58:57;;;;;;;6.80;5.43;;;;;;;1.68;100.00;93709.38;6300972;22;20161;-76
2023/03/28 01:01:23;;;;;;;6.17;5.10;;;;;;;1.82;100.00;93723.81;6299025;22;20195;-76
2023/03/28 01:04:01;;;;;;;6.53;5.23;;;;;;;1.80;100.00;93725.78;6300171;22;20175;-76
2023/03/28 01:06:31;;;;;;;4.60;4.07;;;;;;;1.88;100.00;93735.09;6299278;22;20567;-76
2023/03/28 01:09:00;;;;;;;5.07;4.30;;;;;;;1.68;100.00;93737.53;6299627;22;20196;-76
2023/03/28 01:11:29;;;;;;;5.60;4.57;;;;;;;1.60;100.00;93740.22;6301375;22;20164;-76
2023/03/28 01:14:01;;;;;;;5.20;4.63;;;;;;;1.60;100.00;93737.66;6299654;22;20168;-77
2023/03/28 01:16:30;;;;;;;5.30;4.60;;;;;;;1.73;100.00;93753.16;6299338;22;20199;-76
2023/03/28 01:19:01;;;;;;;5.57;4.60;;;;;;;1.62;100.00;93749.31;6299271;22;20238;-77
2023/03/28 01:22:11;;;;;;;5.40;4.57;;;;;;;1.54;100.00;93754.56;6300056;22;20187;-78
2023/03/28 01:25:18;;;;;;;6.07;5.00;;;;;;;1.54;100.00;93764.00;6286025;22;20167;-76
2023/03/28 01:28:00;;;;;;;6.00;4.87;;;;;;;1.44;100.00;93789.94;6238928;22;20193;-76
2023/03/28 01:31:04;;;;;;;6.87;5.37;;;;;;;1.43;100.00;93782.44;6300867;22;20156;-76
2023/03/28 01:34:06;;;;;;;5.93;4.73;;;;;;;1.46;100.00;93799.97;6299824;22;21061;-78
2023/03/28 01:37:00;;;;;;;5.67;5.07;;;;;;;1.46;99.96;93772.63;6293099;22;20167;-77
2023/03/28 01:39:41;;;;;;;6.53;4.60;;;;;;;1.37;100.00;93798.50;6300291;22;20235;-78
2023/03/28 01:42:20;;;;;;;5.03;4.30;;;;;;;1.35;99.00;93778.25;6298929;22;20678;-77
2023/03/28 01:44:58;;;;;;;5.93;4.57;;;;;;;1.36;99.91;93802.84;6298868;22;20163;-77
2023/03/28 01:47:30;;;;;;;6.13;5.20;;;;;;;1.36;100.00;93784.91;6299273;22;20167;-79
2023/03/28 01:50:02;;;;;;;5.60;4.90;;;;;;;1.39;99.93;93786.31;6299982;22;20176;-81
2023/03/28 01:52:35;;;;;;;5.93;5.00;;;;;;;1.35;100.00;93791.03;6300193;22;20198;-79
2023/03/28 01:55:09;;;;;;;5.63;4.47;;;;;;;1.30;99.89;93802.78;6299362;22;20179;-79
2023/03/28 01:57:42;;;;;;;7.03;5.27;;;;;;;1.32;99.57;93814.44;6297142;22;20159;-78
2023/03/28 02:00:14;;;;;;;5.87;5.27;;;;;;;1.26;99.60;93804.13;6298407;22;20171;-78
2023/03/28 02:02:47;;;;;;;5.63;5.03;;;;;;;1.27;99.63;93783.47;6297339;22;20183;-77
2023/03/28 02:05:18;;;;;;;8.80;4.90;;;;;;;1.32;99.92;93790.59;6299455;22;20248;-76
2023/03/28 02:07:48;;;;;;;6.83;5.17;;;;;;;1.28;99.00;93797.03;6297419;22;20203;-76
2023/03/28 02:10:17;;;;;;;6.23;5.27;;;;;;;1.34;98.65;93804.78;6298441;22;20222;-76
2023/03/28 02:12:48;;;;;;;6.60;5.20;;;;;;;1.36;98.74;93802.03;6297448;22;20191;-76
2023/03/28 02:15:17;;;;;;;7.03;5.20;;;;;;;1.41;99.15;93805.66;6299021;22;20169;-76
2023/03/28 02:17:49;;;;;;;5.37;4.70;;;;;;;1.38;98.72;93792.44;6298915;22;20576;-77
2023/03/28 02:20:19;;;;;;;7.00;5.40;;;;;;;1.49;99.34;93779.13;6297850;22;20155;-77
2023/03/28 02:22:52;;;;;;;5.57;4.90;;;;;;;1.53;99.02;93788.03;6298263;22;20229;-76
2023/03/28 02:25:20;;;;;;;6.43;5.43;;;;;;;1.53;99.07;93777.81;6298247;22;20160;-77
2023/03/28 02:27:51;;;;;;;5.67;4.97;;;;;;;1.51;99.22;93801.00;6299667;22;20259;-77
2023/03/28 02:30:20;;;;;;;6.27;5.10;;;;;;;1.53;99.69;93804.16;6299237;22;20187;-77
2023/03/28 02:32:48;;;;;;;5.97;5.10;;;;;;;1.45;98.71;93790.72;6297745;22;20167;-77
2023/03/28 02:35:16;;;;;;;6.93;4.80;;;;;;;1.41;98.70;93797.97;6298046;22;20171;-76
2023/03/28 02:37:54;;;;;;;6.60;5.20;;;;;;;1.37;99.92;93803.63;6299408;22;20168;-76
2023/03/28 02:40:46;;;;;;;6.30;4.57;;;;;;;1.32;99.49;93790.59;6300126;22;20163;-76
2023/03/28 02:43:40;;;;;;;5.33;4.77;;;;;;;1.34;100.00;93798.88;6299189;22;20190;-76
2023/03/28 02:46:19;;;;;;;6.33;5.10;;;;;;;1.40;100.00;93805.81;6299132;22;20152;-76
2023/03/28 02:49:16;;;;;;;10.27;4.93;;;;;;;1.32;99.43;93801.63;6297997;22;20161;-76
2023/03/28 02:51:49;;;;;;;7.57;4.60;;;;;;;1.29;99.57;93793.53;6294255;22;20202;-79
2023/03/28 02:54:27;;;;;;;6.47;5.20;;;;;;;1.29;100.00;93798.63;6300839;22;20513;-80
2023/03/28 02:57:05;;;;;;;8.73;5.27;;;;;;;1.29;100.00;93789.19;6297945;22;20161;-79
2023/03/28 02:59:36;;;;;;;7.10;5.30;;;;;;;1.31;100.00;93794.13;6299690;22;20220;-78
2023/03/28 03:02:04;;;;;;;5.53;4.13;;;;;;;1.34;99.31;93804.78;6299496;22;20188;-78
2023/03/28 03:04:31;;;;;;;5.23;4.40;;;;;;;1.39;99.23;93805.03;6299073;22;20277;-79
2023/03/28 03:07:00;;;;;;;5.83;4.60;;;;;;;1.43;98.46;93816.50;6299128;22;20558;-79
2023/03/28 03:09:29;;;;;;;4.93;4.10;;;;;;;1.45;98.46;93816.31;6299817;22;20190;-80
2023/03/28 03:11:55;;;;;;;4.63;3.70;;;;;;;1.44;96.82;93824.97;6301291;22;20677;-79
2023/03/28 03:14:22;;;;;;;4.40;4.00;;;;;;;1.41;96.85;93822.78;6300101;22;20164;-80
2023/03/28 03:16:50;;;;;;;5.23;4.43;;;;;;;1.44;97.95;93828.31;6299903;22;20195;-80
2023/03/28 03:19:17;;;;;;;3.60;3.30;;;;;;;1.34;96.99;93821.91;6299253;22;20168;-80
2023/03/28 03:21:45;;;;;;;4.97;3.60;;;;;;;1.31;97.42;93827.38;6299300;22;20279;-79
2023/03/28 03:24:13;;;;;;;4.90;3.93;;;;;;;1.24;97.06;93836.78;6297173;22;20164;-81
2023/03/28 03:26:41;;;;;;;3.40;3.10;;;;;;;1.23;95.90;93837.75;6297122;22;20174;-80
2023/03/28 03:29:08;;;;;;;3.77;3.43;;;;;;;1.09;95.92;93841.94;6298788;22;20171;-80
2023/03/28 03:31:35;;;;;;;4.10;3.40;;;;;;;1.06;95.74;93843.09;6298711;22;20174;-79
2023/03/28 03:34:02;;;;;;;4.50;3.57;;;;;;;1.08;95.72;93822.44;6300754;22;20588;-79
2023/03/28 03:36:30;;;;;;;5.13;4.07;;;;;;;1.19;95.28;93839.88;6298627;22;20208;-80
2023/03/28 03:38:57;;;;;;;6.87;3.67;;;;;;;1.20;94.48;93848.34;6298534;22;20172;-79
2023/03/28 03:41:24;;;;;;;5.57;3.87;;;;;;;1.15;93.46;93854.00;6298611;22;20737;-78
2023/03/28 03:43:52;;;;;;;2.97;2.67;;;;;;;1.11;93.44;93863.81;6299854;22;20171;-79
2023/03/28 03:46:19;;;;;;;4.40;3.23;;;;;;;1.07;93.90;93865.13;6300667;22;20177;-80
2023/03/28 03:48:46;;;;;;;3.67;3.37;;;;;;;0.90;94.11;93858.63;6299908;22;20168;-79
2023/03/28 03:51:13;;;;;;;4.10;3.20;;;;;;;0.79;94.72;93856.53;6298991;22;20168;-78
2023/03/28 03:53:39;;;;;;;3.33;3.03;;;;;;;0.92;93.99;93872.06;6297980;22;21043;-79
2023/03/28 03:56:07;;;;;;;4.00;3.00;;;;;;;0.91;93.82;93906.25;6301726;22;20164;-79
2023/03/28 03:58:34;;;;;;;5.03;3.43;;;;;;;0.93;92.44;93880.50;6300165;22;20660;-78
2023/03/28 04:01:03;;;;;;;3.40;3.10;;;;;;;0.93;92.34;93876.16;6301172;22;20233;-80
2023/03/28 04:03:30;;;;;;;5.87;3.33;;;;;;;0.93;91.88;93863.38;6301545;22;20198;-80
2023/03/28 04:05:56;;;;;;;3.80;3.30;;;;;;;0.86;92.35;93872.75;6302829;22;20490;-78
2023/03/28 04:08:24;;;;;;;5.00;3.17;;;;;;;0.93;93.53;93883.03;6302593;22;20174;-80
2023/03/28 04:10:51;;;;;;;3.63;3.30;;;;;;;0.83;93.06;93896.13;6301393;22;20167;-80
2023/03/28 04:13:17;;;;;;;4.00;3.47;;;;;;;0.67;93.69;93870.72;6302302;22;20171;-80
2023/03/28 04:15:46;;;;;;;5.37;3.43;;;;;;;0.87;93.91;93893.97;6301782;22;20663;-77
2023/03/28 04:18:16;;;;;;;5.47;3.83;;;;;;;0.84;94.62;93899.44;6301778;22;20196;-79
2023/03/28 04:20:45;;;;;;;6.23;3.90;;;;;;;0.71;94.06;93887.31;6299752;22;20199;-80
2023/03/28 04:23:12;;;;;;;5.27;3.77;;;;;;;0.83;94.49;93900.44;6299573;22;20699;-79
2023/03/28 04:25:40;;;;;;;4.53;3.90;;;;;;;0.74;94.81;93914.28;6299672;22;20562;-80
2023/03/28 04:28:08;;;;;;;6.20;4.20;;;;;;;0.77;94.24;93914.72;6300986;22;20178;-79
2023/03/28 04:30:37;;;;;;;4.00;3.53;;;;;;;0.72;95.42;93931.56;6301089;22;20171;-80
2023/03/28 04:33:03;;;;;;;4.63;3.70;;;;;;;0.73;94.77;93923.72;6299847;22;20177;-79
2023/03/28 04:35:34;;;;;;;5.97;4.47;;;;;;;0.75;95.84;93939.66;6300816;22;20167;-79
2023/03/28 04:38:01;;;;;;;6.40;4.43;;;;;;;0.80;95.64;93937.38;6299591;22;20178;-81
2023/03/28 04:40:28;;;;;;;7.43;4.93;;;;;;;0.89;94.82;93935.53;6302103;22;20172;-80
2023/03/28 04:42:55;;;;;;;6.13;4.27;;;;;;;0.96;92.17;93944.88;6299970;22;20190;-79
2023/03/28 04:45:22;;;;;;;5.40;3.90;;;;;;;0.95;91.33;93958.63;6298184;22;20173;-79
2023/03/28 04:47:49;;;;;;;5.57;4.00;;;;;;;0.99;90.02;93949.63;6297906;22;20255;-79
2023/03/28 04:50:16;;;;;;;6.67;4.57;;;;;;;0.97;88.85;93977.16;6299207;22;20177;-80
2023/03/28 04:52:44;;;;;;;7.27;5.23;;;;;;;0.97;89.11;93974.59;6298398;22;20164;-79
2023/03/28 04:55:11;;;;;;;7.00;5.50;;;;;;;0.96;88.90;93987.53;6296956;22;20178;-80
2023/03/28 04:57:38;;;;;;;7.67;5.77;;;;;;;0.79;88.56;93988.69;6297934;22;20183;-83
2023/03/28 05:00:08;;;;;;;7.73;6.23;;;;;;;0.79;88.56;93988.69;6297563;22;20210;-79
2023/03/28 05:02:35;;;;;;;7.90;6.13;;;;;;;0.76;88.75;93989.81;6298735;22;20182;-79
2023/03/28 05:05:02;;;;;;;10.13;6.63;;;;;;;0.66;88.85;93984.19;6296499;22;20189;-80
2023/03/28 05:07:29;;;;;;;9.67;7.00;;;;;;;0.75;88.91;93987.47;6293956;22;20218;-79
2023/03/28 05:09:58;;;;;;;10.87;7.90;;;;;;;0.70;89.72;93987.16;6297297;22;20177;-77
2023/03/28 05:12:24;;;;;;;9.10;7.40;;;;;;;0.73;89.91;93985.06;6299295;22;20198;-77
2023/03/28 05:14:51;;;;;;;10.00;7.57;;;;;;;0.76;90.20;94000.06;6298598;22;20220;-78
2023/03/28 05:17:18;;;;;;;9.50;7.00;;;;;;;0.72;89.63;94006.50;6297164;22;20585;-77
2023/03/28 05:19:46;;;;;;;12.20;7.63;;;;;;;0.69;89.26;94009.41;6297911;22;20603;-77
2023/03/28 05:22:13;;;;;;;8.87;7.40;;;;;;;0.71;89.55;94019.44;6297013;22;20194;-79
2023/03/28 05:24:40;;;;;;;9.07;7.60;;;;;;;0.68;89.93;94007.00;6298483;22;20999;-77
2023/03/28 05:27:08;;;;;;;10.47;7.63;;;;;;;0.77;89.88;94001.66;6296844;22;20165;-77
2023/03/28 05:29:35;;;;;;;10.20;7.63;;;;;;;0.82;90.48;94004.47;6297039;22;20642;-78
2023/03/28 05:32:02;;;;;;;10.20;8.13;;;;;;;0.88;89.83;94014.00;6296539;22;20164;-78
2023/03/28 05:34:29;;;;;;;9.73;7.53;;;;;;;0.85;90.01;94004.13;6299011;22;20174;-80
2023/03/28 05:36:56;;;;;;;9.53;7.63;;;;;;;0.86;89.22;93997.25;6297711;22;20170;-80
2023/03/28 05:39:23;;;;;;;11.97;7.77;;;;;;;0.71;89.47;93991.31;6299312;22;20248;-80
2023/03/28 05:41:50;;;;;;;11.03;7.23;;;;;;;0.76;88.63;94004.38;6299311;22;20214;-80
2023/03/28 05:44:18;;;;;;;9.40;7.00;;;;;;;0.82;88.44;94008.78;6299613;22;20164;-80
2023/03/28 05:46:45;;;;;;;10.13;7.63;;;;;;;0.83;88.42;94015.50;6298778;22;20637;-80
2023/03/28 05:49:13;;;;;;;8.67;6.83;;;;;;;0.83;88.88;94026.53;6298748;22;20242;-80
2023/03/28 05:51:39;;;;;;;9.93;6.50;;;;;;;0.85;87.88;94013.56;6299723;22;20175;-80
2023/03/28 05:54:06;;;;;;;9.03;6.23;;;;;;;0.90;86.17;94037.63;6299008;22;21072;-79
2023/03/28 05:56:34;;;;;;;10.40;7.77;;;;;;;0.86;86.54;94036.41;6300803;22;20203;-80
2023/03/28 05:59:01;;;;;;;12.57;7.20;;;;;;;0.79;86.27;94032.16;6298273;22;20702;-79
2023/03/28 06:01:30;;;;;;;11.60;6.90;;;;;;;0.84;86.30;94045.19;6297769;22;20170;-80
2023/03/28 06:03:57;;;;;;;9.23;6.53;;;;;;;0.75;86.62;94054.69;6299706;22;20198;-79
2023/03/28 06:06:24;;;;;;;10.80;6.53;;;;;;;0.76;86.86;94043.50;6297962;22;20168;-78
2023/03/28 06:08:51;;;;;;;9.37;7.07;;;;;;;0.76;87.07;94058.06;6298112;22;20198;-78
2023/03/28 06:11:17;;;;;;;8.07;5.73;;;;;;;0.89;86.18;94055.72;6305764;22;20172;-78
2023/03/28 06:13:44;;;;;;;7.17;5.33;;;;;;;0.82;86.03;94054.81;6301568;22;20629;-78
2023/03/28 06:16:11;;;;;;;12.80;7.83;;;;;;;0.64;86.75;94064.53;6299765;22;20278;-78
2023/03/28 06:18:39;;;;;;;9.97;7.73;;;;;;;0.77;87.49;94077.56;6300081;22;20170;-80
2023/03/28 06:21:06;;;;;;;11.97;6.70;;;;;;;0.73;88.28;94071.97;6299735;22;20190;-78
2023/03/28 06:23:33;;;;;;;9.50;7.03;;;;;;;0.71;88.43;94078.25;6299881;22;20188;-78
2023/03/28 06:26:01;;;;;;;12.93;7.47;;;;;;;0.75;88.67;94071.81;6299896;22;20172;-79
2023/03/28 06:28:28;;;;;;;12.83;9.37;;;;;;;0.81;88.17;94079.56;6300995;22;20216;-78
2023/03/28 06:30:54;;;;;;;13.87;8.30;;;;;;;0.97;86.12;94073.53;6300413;22;20164;-79
2023/03/28 06:33:21;;;;;;;8.90;7.60;;;;;;;0.94;84.07;94081.56;6299798;22;20554;-78
2023/03/28 06:35:50;;;;;;;12.03;8.13;;;;;;;0.88;83.49;94064.34;6299109;22;20175;-79
2023/03/28 06:38:17;;;;;;;12.97;8.60;;;;;;;0.94;83.58;94079.81;6299289;22;20179;-78
2023/03/28 06:40:43;;;;;;;11.20;7.60;;;;;;;0.99;83.61;94069.84;6299422;22;20177;-77
2023/03/28 06:43:10;;;;;;;8.97;6.60;;;;;;;0.96;83.04;94067.63;6297457;22;20192;-77
2023/03/28 06:45:37;;;;;;;10.60;7.10;;;;;;;0.95;83.18;94072.94;6297853;22;20207;-78
2023/03/28 06:48:05;;;;;;;8.87;7.10;;;;;;;0.92;83.16;94075.84;6297249;22;20179;-77
2023/03/28 06:50:32;;;;;;;11.50;7.93;;;;;;;0.89;83.32;94063.38;6298890;22;20230;-77
2023/03/28 06:53:00;;;;;;;10.77;7.50;;;;;;;1.00;85.02;94074.00;6296786;22;20172;-77
2023/03/28 06:55:27;;;;;;;12.07;8.30;;;;;;;1.05;85.00;94088.81;6297118;22;20175;-77
2023/03/28 06:57:53;;;;;;;10.40;7.90;;;;;;;1.17;84.90;94084.06;6296751;22;20176;-77
2023/03/28 07:00:21;;;;;;;10.40;7.00;;;;;;;1.12;84.88;94093.06;6298742;22;20171;-78
2023/03/28 07:02:48;;;;;;;11.77;7.43;;;;;;;1.02;84.42;94096.81;6298279;22;20191;-78
2023/03/28 07:05:15;;;;;;;11.93;6.60;;;;;;;1.02;86.21;94092.50;6297882;22;20168;-77
2023/03/28 07:07:41;;;;;;;7.93;6.30;;;;;;;0.89;84.16;94088.97;6297796;22;20558;-76
2023/03/28 07:10:10;;;;;;;9.63;6.90;;;;;;;0.97;85.07;94104.22;6298214;22;20202;-78
2023/03/28 07:12:38;;;;;;;9.03;7.30;;;;;;;1.04;84.82;94115.34;6299089;22;20176;-79
2023/03/28 07:15:05;;;;;;;10.13;7.70;;;;;;;1.14;83.82;94134.63;6297222;22;20170;-78
2023/03/28 07:17:32;;;;;;;9.40;6.73;;;;;;;1.22;82.68;94125.25;6296759;22;20245;-79
2023/03/28 07:20:00;;;;;;;11.63;8.23;;;;;;;1.28;82.09;94129.69;6296980;22;20239;-79
2023/03/28 07:22:27;;;;;;;15.40;10.43;;;;;;;1.31;82.54;94142.13;6297157;22;20170;-79
2023/03/28 07:24:54;;;;;;;13.43;9.30;;;;;;;1.34;81.66;94134.09;6299063;22;20400;-82
2023/03/28 07:27:22;;;;;;;10.60;7.20;;;;;;;1.18;81.31;94129.16;6297150;22;20182;-80
2023/03/28 07:29:49;;;;;;;9.57;6.83;;;;;;;1.28;81.15;94111.78;6295919;22;20171;-79
2023/03/28 07:32:16;;;;;;;8.97;6.80;;;;;;;1.22;81.40;94127.81;6295859;22;20706;-80
2023/03/28 07:34:43;;;;;;;15.97;8.90;;;;;;;1.33;81.58;94135.88;6298584;22;20205;-79
2023/03/28 07:37:10;;;;;;;11.67;7.10;;;;;;;1.31;81.48;94139.56;6296805;22;20167;-79
2023/03/28 07:39:38;;;;;;;11.50;7.27;;;;;;;1.32;81.97;94144.53;6296416;22;20168;-78
2023/03/28 07:42:07;;;;;;;13.00;7.83;;;;;;;1.41;81.29;94148.59;6298065;22;20202;-81
2023/03/28 07:44:35;;;;;;;13.80;8.30;;;;;;;1.49;81.06;94163.88;6300797;22;20669;-80
2023/03/28 07:47:02;;;;;;;15.00;7.67;;;;;;;1.49;80.89;94175.88;6300053;22;20201;-83
2023/03/28 07:49:29;;;;;;;8.20;6.70;;;;;;;1.41;80.12;94171.66;6300087;22;20171;-81
2023/03/28 07:51:56;;;;;;;9.17;6.63;;;;;;;1.29;81.01;94179.91;6299812;22;20223;-80
2023/03/28 07:54:23;;;;;;;9.63;7.10;;;;;;;1.24;81.35;94180.41;6299764;22;20179;-81
2023/03/28 07:56:50;;;;;;;9.87;7.23;;;;;;;1.25;80.80;94165.84;6301337;22;20516;-81
2023/03/28 07:59:17;;;;;;;9.83;7.40;;;;;;;1.40;81.11;94198.19;6300077;22;20205;-80
2023/03/28 08:01:46;;;;;;;12.63;8.10;;;;;;;1.39;80.90;94185.56;6299570;22;20613;-80
2023/03/28 08:04:14;;;;;;;14.20;7.60;;;;;;;1.38;81.08;94194.22;6299491;22;21011;-80
2023/03/28 08:06:41;;;;;;;10.93;6.63;;;;;;;1.41;80.33;94204.91;6300613;22;20172;-82
2023/03/28 08:09:11;;;;;;;12.17;7.60;;;;;;;1.44;80.50;94191.78;6300099;22;20190;-82
2023/03/28 08:11:39;;;;;;;8.97;6.43;;;;;;;1.43;79.78;94189.38;6298894;22;20172;-80
2023/03/28 08:14:08;;;;;;;12.17;7.27;;;;;;;1.34;79.70;94191.22;6299648;22;20175;-81
2023/03/28 08:16:35;;;;;;;10.47;7.20;;;;;;;1.38;80.50;94199.34;6297292;22;20226;-80
2023/03/28 08:19:04;;;;;;;7.90;5.73;;;;;;;1.30;81.19;94195.06;6295455;22;20171;-81
2023/03/28 08:21:31;;;;;;;8.73;6.57;;;;;;;1.18;84.01;94206.72;6296640;22;20171;-79
2023/03/28 08:23:57;;;;;;;10.27;6.93;;;;;;;1.31;84.02;94203.53;6297659;22;20669;-81
2023/03/28 08:26:25;;;;;;;12.27;8.20;;;;;;;1.31;84.92;94219.69;6297368;22;20249;-79
2023/03/28 08:28:53;;;;;;;12.40;7.70;;;;;;;1.30;84.33;94212.22;6298763;22;20164;-82
2023/03/28 08:31:22;;;;;;;11.53;7.00;;;;;;;1.27;83.12;94221.00;6299518;22;20171;-79
2023/03/28 08:33:51;;;;;;;8.33;6.70;;;;;;;1.24;82.55;94221.34;6297811;22;20165;-79
2023/03/28 08:36:32;;;;;;;7.67;5.90;;;;;;;1.25;81.47;94211.91;6303662;22;20181;-80
2023/03/28 08:39:00;;;;;;;9.93;5.57;;;;;;;1.33;80.99;94211.88;6304794;22;20178;-79
2023/03/28 08:41:47;;;;;;;9.00;6.67;;;;;;;1.44;80.80;94216.56;6304349;22;20554;-78
2023/03/28 08:44:35;;;;;;;5.83;5.20;;;;;;;1.49;80.79;94229.63;6304024;22;20186;-78
2023/03/28 08:47:06;;;;;;;6.97;4.93;;;;;;;1.42;80.05;94233.84;6304460;22;20182;-81
2023/03/28 08:49:37;;;;;;;7.17;6.17;;;;;;;1.45;80.04;94246.28;6305612;22;20164;-80
2023/03/28 08:52:06;;;;;;;7.50;6.03;;;;;;;1.36;79.68;94260.91;6304732;22;20161;-79
2023/03/28 08:54:41;;;;;;;8.30;5.80;;;;;;;1.34;80.09;94242.38;6304932;22;20508;-81
2023/03/28 08:57:16;;;;;;;8.90;6.20;;;;;;;1.34;80.61;94250.06;6305897;22;20175;-80
2023/03/28 08:59:50;;;;;;;9.20;6.67;;;;;;;1.38;81.38;94259.00;6305513;22;20154;-80
2023/03/28 09:02:20;;;;;;;8.10;6.20;;;;;;;1.38;80.58;94261.56;6305821;22;20242;-81
2023/03/28 09:04:47;;;;;;;11.37;7.20;;;;;;;1.42;81.93;94251.75;6305474;22;20253;-80
2023/03/28 09:07:23;;;;;;;11.40;6.60;;;;;;;1.42;80.65;94251.75;6305531;22;20168;-79
2023/03/28 09:10:03;;;;;;;13.20;7.87;;;;;;;1.52;81.23;94250.56;6305855;22;20161;-80
2023/03/28 09:12:42;;;;;;;10.20;7.10;;;;;;;1.71;81.68;94252.63;6304895;22;20619;-80
2023/03/28 09:15:30;;;;;;;12.63;7.40;;;;;;;1.82;81.88;94264.22;6305022;22;20602;-79
2023/03/28 09:18:18;;;;;;;16.10;9.10;;;;;;;1.87;82.04;94267.06;6305099;22;20472;-79
2023/03/28 09:20:52;;;;;;;9.07;6.80;;;;;;;1.65;83.96;94263.56;6305133;22;20163;-77
2023/03/28 09:23:38;;;;;;;13.60;9.70;;;;;;;1.57;85.89;94255.16;6304716;22;20183;-76
2023/03/28 09:26:09;;;;;;;11.20;8.17;;;;;;;1.59;84.37;94251.44;6304249;22;20556;-77
2023/03/28 09:28:45;;;;;;;8.03;6.20;;;;;;;1.51;83.23;94256.66;6303580;22;20496;-78
2023/03/28 09:31:15;;;;;;;9.97;7.70;;;;;;;1.55;83.62;94255.34;6303409;22;20164;-78
2023/03/28 09:33:47;;;;;;;12.83;8.27;;;;;;;1.64;83.38;94263.75;6304810;22;20247;-78
2023/03/28 09:36:19;;;;;;;17.27;8.50;;;;;;;1.74;83.54;94254.03;6305086;22;20156;-79
2023/03/28 09:38:53;;;;;;;12.80;7.70;;;;;;;1.58;82.82;94256.75;6305578;22;20155;-80
2023/03/28 09:41:25;;;;;;;12.80;8.13;;;;;;;1.72;83.86;94263.69;6305278;22;20220;-79
2023/03/28 09:43:55;;;;;;;15.37;9.37;;;;;;;1.87;84.29;94271.38;6305107;22;20184;-79
2023/03/28 09:46:30;;;;;;;13.10;8.10;;;;;;;1.85;83.28;94268.22;6304793;22;20168;-77
2023/03/28 09:48:57;;;;;;;12.57;7.60;;;;;;;1.87;81.79;94267.06;6305802;22;20152;-80
2023/03/28 09:51:24;;;;;;;11.03;7.13;;;;;;;1.94;81.68;94285.88;6305900;22;20172;-80
2023/03/28 09:53:52;;;;;;;12.43;7.20;;;;;;;1.96;82.72;94291.66;6305188;22;20697;-79
2023/03/28 09:56:26;;;;;;;9.77;7.30;;;;;;;1.89;81.01;94275.38;6304863;22;20178;-77
2023/03/28 09:58:55;;;;;;;10.40;7.80;;;;;;;1.80;80.72;94268.72;6304702;22;20156;-78
2023/03/28 10:01:41;;;;;;;9.87;6.80;;;;;;;1.86;80.14;94287.72;6305518;22;20178;-78
2023/03/28 10:04:13;;;;;;;8.77;6.30;;;;;;;1.93;78.65;94279.19;6304681;22;20180;-78
2023/03/28 10:06:41;;;;;;;8.83;6.67;;;;;;;1.96;77.47;94266.03;6305299;22;20195;-78
2023/03/28 10:09:15;;;;;;;7.90;5.70;;;;;;;2.03;75.26;94260.97;6304797;22;20168;-78
2023/03/28 10:11:53;;;;;;;8.70;5.80;;;;;;;2.35;75.38;94262.41;6304951;22;20159;-78
2023/03/28 10:14:31;;;;;;;11.63;7.10;;;;;;;2.74;74.55;94265.47;6304199;22;20603;-79
2023/03/28 10:17:00;;;;;;;10.43;6.00;;;;;;;2.99;74.11;94263.38;6304304;22;20543;-78
2023/03/28 10:19:32;;;;;;;8.90;6.20;;;;;;;2.96;72.79;94258.59;6305303;22;20164;-80
2023/03/28 10:22:02;;;;;;;10.90;6.47;;;;;;;2.91;73.61;94263.47;6301585;22;20175;-79
2023/03/28 10:24:31;;;;;;;10.60;7.53;;;;;;;2.91;73.74;94271.97;6303128;22;20203;-78
2023/03/28 10:26:59;;;;;;;8.33;5.80;;;;;;;2.86;73.39;94259.69;6304505;22;20505;-78
2023/03/28 10:29:27;;;;;;;10.20;6.50;;;;;;;2.75;73.64;94275.53;6304931;22;20175;-76
2023/03/28 10:31:54;;;;;;;9.83;5.90;;;;;;;2.88;73.87;94287.72;6304427;22;20500;-77
2023/03/28 10:34:26;;;;;;;9.77;6.80;;;;;;;2.95;74.32;94280.88;6304801;22;20183;-77
2023/03/28 10:36:53;;;;;;;8.63;6.53;;;;;;;3.13;74.58;94291.56;6304931;22;20168;-77
2023/03/28 10:39:22;;;;;;;8.63;6.47;;;;;;;3.16;73.98;94309.16;6304175;22;20507;-77
2023/03/28 10:41:55;;;;;;;11.93;7.83;;;;;;;3.13;75.31;94293.31;6304720;22;20704;-77
2023/03/28 10:44:28;;;;;;;9.37;5.80;;;;;;;2.95;74.71;94283.44;6304116;22;20216;-77
2023/03/28 10:46:57;;;;;;;10.97;7.13;;;;;;;2.95;75.45;94318.56;6305036;22;20235;-77
2023/03/28 10:49:24;;;;;;;12.67;6.23;;;;;;;2.94;75.76;94293.91;6304887;22;20505;-77
2023/03/28 10:51:51;;;;;;;8.00;5.97;;;;;;;3.35;76.25;94318.03;6304622;22;20168;-77
2023/03/28 10:54:34;;;;;;;9.40;6.50;;;;;;;3.59;74.89;94297.16;6303254;22;20168;-78
2023/03/28 10:57:12;;;;;;;9.33;6.60;;;;;;;4.11;75.12;94303.69;6304556;22;20573;-78
2023/03/28 10:59:53;;;;;;;8.40;5.50;;;;;;;4.39;72.94;94278.75;6304704;22;20171;-78
2023/03/28 11:02:41;;;;;;;10.60;6.63;;;;;;;4.52;72.89;94291.69;6304880;22;20156;-80
2023/03/28 11:05:27;;;;;;;8.73;6.07;;;;;;;3.97;73.32;94289.94;6304418;22;20176;-79
2023/03/28 11:08:02;;;;;;;11.70;5.70;;;;;;;3.97;72.63;94289.94;6304204;22;20456;-78
2023/03/28 11:10:39;;;;;;;11.53;6.57;;;;;;;4.18;72.29;94309.69;6304374;22;20179;-78
2023/03/28 11:13:21;;;;;;;8.63;6.00;;;;;;;4.28;70.66;94292.13;6305040;22;20159;-78
2023/03/28 11:15:56;;;;;;;7.77;6.07;;;;;;;4.76;69.76;94316.94;6299830;22;20198;-77
2023/03/28 11:18:38;;;;;;;8.73;5.70;;;;;;;4.75;67.56;94304.28;6273285;22;20157;-77
2023/03/28 11:21:17;;;;;;;8.33;5.67;;;;;;;5.08;67.19;94323.22;6273889;22;20192;-77
2023/03/28 11:23:47;;;;;;;6.57;5.40;;;;;;;5.23;64.90;94308.44;6272772;22;20160;-78
2023/03/28 11:26:17;;;;;;;6.07;4.83;;;;;;;5.10;65.74;94298.09;6272756;22;20162;-78
2023/03/28 11:29:07;;;;;;;7.67;5.50;;;;;;;5.17;65.35;94296.31;6273600;22;20163;-79
2023/03/28 11:31:38;;;;;;;6.97;4.90;;;;;;;4.74;65.40;94298.31;6273878;22;20162;-78
2023/03/28 11:34:13;;;;;;;9.23;5.50;;;;;;;4.62;65.15;94304.22;6272792;22;20149;-77
2023/03/28 11:36:47;;;;;;;8.43;5.50;;;;;;;4.87;65.93;94311.28;6272365;22;20247;-77
2023/03/28 11:39:21;;;;;;;5.70;5.00;;;;;;;5.45;64.18;94309.91;6272696;22;20493;-78
2023/03/28 11:41:50;;;;;;;6.10;5.10;;;;;;;5.99;61.93;94311.56;6273623;22;20173;-79
2023/03/28 11:44:23;;;;;;;6.13;4.47;;;;;;;5.58;60.28;94306.53;6273350;22;20195;-78
2023/03/28 11:46:56;;;;;;;7.67;5.07;;;;;;;5.46;62.03;94318.38;6273765;22;20156;-79
2023/03/28 11:49:30;;;;;;;9.87;6.50;;;;;;;5.77;61.23;94297.25;6273570;22;20160;-78
2023/03/28 11:52:02;;;;;;;7.57;5.00;;;;;;;6.09;58.71;94320.47;6273114;22;20161;-79
2023/03/28 11:54:35;;;;;;;5.87;4.67;;;;;;;5.76;59.27;94304.19;6273407;22;20157;-81
2023/03/28 11:57:08;;;;;;;7.80;5.00;;;;;;;5.87;58.77;94301.03;6274091;22;20157;-81